sensor_id;sensor_type;location;lat;lon;timestamp;P1;durP1;ratioP1;P2;durP2;ratioP2
13698;SDS011;6921;53.642;9.956;2023-02-15T00:01:04;81.47;;;32.30;;
13698;SDS011;6921;53.642;9.956;2023-02-15T00:03:07;69.57;;;30.73;;
13698;SDS011;6921;53.642;9.956;2023-02-15T00:05:12;73.07;;;30.13;;
13698;SDS011;6921;53.642;9.956;2023-02-15T00:07:16;76.83;;;31.23;;
13698;SDS011;6921;53.642;9.956;2023-02-15T00:09:20;72.00;;;31.87;;
13698;SDS011;6921;53.642;9.956;2023-02-15T00:11:23;73.37;;;31.20;;
13698;SDS011;6921;53.642;9.956;2023-02-15T00:13:52;61.57;;;28.20;;
13698;SDS011;6921;53.642;9.956;2023-02-15T00:15:59;74.97;;;29.80;;
13698;SDS011;6921;53.642;9.956;2023-02-15T00:18:03;88.23;;;31.17;;
13698;SDS011;6921;53.642;9.956;2023-02-15T00:20:07;85.27;;;30.53;;
13698;SDS011;6921;53.642;9.956;2023-02-15T00:22:10;80.70;;;32.07;;
13698;SDS011;6921;53.642;9.956;2023-02-15T00:24:14;82.10;;;31.33;;
13698;SDS011;6921;53.642;9.956;2023-02-15T00:26:19;64.37;;;28.30;;
13698;SDS011;6921;53.642;9.956;2023-02-15T00:28:22;74.40;;;30.73;;
13698;SDS011;6921;53.642;9.956;2023-02-15T00:30:27;70.87;;;30.43;;
13698;SDS011;6921;53.642;9.956;2023-02-15T00:32:30;79.33;;;31.47;;
13698;SDS011;6921;53.642;9.956;2023-02-15T00:34:33;78.87;;;33.03;;
13698;SDS011;6921;53.642;9.956;2023-02-15T00:36:37;78.00;;;31.67;;
13698;SDS011;6921;53.642;9.956;2023-02-15T00:38:40;93.73;;;33.07;;
13698;SDS011;6921;53.642;9.956;2023-02-15T00:40:44;85.00;;;32.30;;
13698;SDS011;6921;53.642;9.956;2023-02-15T00:42:47;86.60;;;32.97;;
13698;SDS011;6921;53.642;9.956;2023-02-15T00:44:50;75.00;;;30.83;;
13698;SDS011;6921;53.642;9.956;2023-02-15T00:46:55;74.23;;;30.20;;
13698;SDS011;6921;53.642;9.956;2023-02-15T00:48:58;72.60;;;27.77;;
13698;SDS011;6921;53.642;9.956;2023-02-15T00:51:01;74.77;;;30.80;;
13698;SDS011;6921;53.642;9.956;2023-02-15T00:53:05;83.63;;;34.00;;
13698;SDS011;6921;53.642;9.956;2023-02-15T00:55:08;80.20;;;30.73;;
13698;SDS011;6921;53.642;9.956;2023-02-15T00:57:12;77.47;;;33.10;;
13698;SDS011;6921;53.642;9.956;2023-02-15T00:59:15;83.37;;;33.40;;
13698;SDS011;6921;53.642;9.956;2023-02-15T01:01:19;89.77;;;34.53;;
13698;SDS011;6921;53.642;9.956;2023-02-15T01:03:24;79.50;;;33.33;;
13698;SDS011;6921;53.642;9.956;2023-02-15T01:05:27;87.90;;;34.80;;
13698;SDS011;6921;53.642;9.956;2023-02-15T01:07:31;86.97;;;34.10;;
13698;SDS011;6921;53.642;9.956;2023-02-15T01:09:35;86.27;;;33.80;;
13698;SDS011;6921;53.642;9.956;2023-02-15T01:11:38;93.67;;;34.27;;
13698;SDS011;6921;53.642;9.956;2023-02-15T01:13:41;94.57;;;34.53;;
13698;SDS011;6921;53.642;9.956;2023-02-15T01:15:44;82.13;;;32.43;;
13698;SDS011;6921;53.642;9.956;2023-02-15T01:17:48;82.37;;;32.80;;
13698;SDS011;6921;53.642;9.956;2023-02-15T01:19:55;103.30;;;33.47;;
13698;SDS011;6921;53.642;9.956;2023-02-15T01:21:58;114.90;;;34.50;;
13698;SDS011;6921;53.642;9.956;2023-02-15T01:24:01;100.67;;;32.50;;
13698;SDS011;6921;53.642;9.956;2023-02-15T01:26:05;109.87;;;35.93;;
13698;SDS011;6921;53.642;9.956;2023-02-15T01:28:09;80.60;;;33.60;;
13698;SDS011;6921;53.642;9.956;2023-02-15T01:30:12;98.57;;;35.73;;
13698;SDS011;6921;53.642;9.956;2023-02-15T01:32:16;91.40;;;32.30;;
13698;SDS011;6921;53.642;9.956;2023-02-15T01:34:19;100.17;;;34.83;;
13698;SDS011;6921;53.642;9.956;2023-02-15T01:36:24;160.70;;;36.53;;
13698;SDS011;6921;53.642;9.956;2023-02-15T01:38:27;90.60;;;31.87;;
13698;SDS011;6921;53.642;9.956;2023-02-15T01:40:30;121.43;;;33.33;;
13698;SDS011;6921;53.642;9.956;2023-02-15T01:42:33;115.80;;;32.77;;
13698;SDS011;6921;53.642;9.956;2023-02-15T01:44:47;110.17;;;34.00;;
13698;SDS011;6921;53.642;9.956;2023-02-15T01:46:51;110.13;;;31.20;;
13698;SDS011;6921;53.642;9.956;2023-02-15T01:48:56;102.80;;;34.70;;
13698;SDS011;6921;53.642;9.956;2023-02-15T01:51:03;148.63;;;34.87;;
13698;SDS011;6921;53.642;9.956;2023-02-15T01:53:09;84.33;;;30.80;;
13698;SDS011;6921;53.642;9.956;2023-02-15T01:55:18;97.43;;;34.67;;
13698;SDS011;6921;53.642;9.956;2023-02-15T01:57:24;94.60;;;33.50;;
13698;SDS011;6921;53.642;9.956;2023-02-15T01:59:29;94.27;;;33.60;;
13698;SDS011;6921;53.642;9.956;2023-02-15T02:01:35;110.47;;;35.03;;
13698;SDS011;6921;53.642;9.956;2023-02-15T02:03:39;90.97;;;32.87;;
13698;SDS011;6921;53.642;9.956;2023-02-15T02:05:48;100.57;;;33.90;;
13698;SDS011;6921;53.642;9.956;2023-02-15T02:07:52;92.37;;;33.07;;
13698;SDS011;6921;53.642;9.956;2023-02-15T02:09:58;118.00;;;35.40;;
13698;SDS011;6921;53.642;9.956;2023-02-15T02:12:03;98.33;;;33.47;;
13698;SDS011;6921;53.642;9.956;2023-02-15T02:14:06;96.77;;;32.93;;
13698;SDS011;6921;53.642;9.956;2023-02-15T02:16:11;97.80;;;32.33;;
13698;SDS011;6921;53.642;9.956;2023-02-15T02:18:21;104.80;;;35.17;;
13698;SDS011;6921;53.642;9.956;2023-02-15T02:20:43;96.53;;;33.00;;
13698;SDS011;6921;53.642;9.956;2023-02-15T02:23:07;91.53;;;32.47;;
13698;SDS011;6921;53.642;9.956;2023-02-15T02:25:56;103.43;;;34.43;;
13698;SDS011;6921;53.642;9.956;2023-02-15T02:28:28;97.57;;;33.90;;
13698;SDS011;6921;53.642;9.956;2023-02-15T02:30:56;114.60;;;33.43;;
13698;SDS011;6921;53.642;9.956;2023-02-15T02:33:23;94.97;;;33.00;;
13698;SDS011;6921;53.642;9.956;2023-02-15T02:35:48;92.43;;;31.90;;
13698;SDS011;6921;53.642;9.956;2023-02-15T02:38:00;97.10;;;31.93;;
13698;SDS011;6921;53.642;9.956;2023-02-15T02:40:10;127.57;;;33.40;;
13698;SDS011;6921;53.642;9.956;2023-02-15T02:42:21;99.73;;;33.67;;
13698;SDS011;6921;53.642;9.956;2023-02-15T02:44:29;102.13;;;33.73;;
13698;SDS011;6921;53.642;9.956;2023-02-15T02:46:39;101.83;;;32.63;;
13698;SDS011;6921;53.642;9.956;2023-02-15T02:48:53;122.27;;;33.47;;
13698;SDS011;6921;53.642;9.956;2023-02-15T02:50:56;177.57;;;34.47;;
13698;SDS011;6921;53.642;9.956;2023-02-15T02:53:00;118.00;;;33.20;;
13698;SDS011;6921;53.642;9.956;2023-02-15T02:55:03;112.50;;;31.57;;
13698;SDS011;6921;53.642;9.956;2023-02-15T02:57:08;115.37;;;33.37;;
13698;SDS011;6921;53.642;9.956;2023-02-15T02:59:12;83.83;;;32.00;;
13698;SDS011;6921;53.642;9.956;2023-02-15T03:01:20;97.07;;;32.53;;
13698;SDS011;6921;53.642;9.956;2023-02-15T03:03:27;122.20;;;32.73;;
13698;SDS011;6921;53.642;9.956;2023-02-15T03:05:37;104.40;;;35.27;;
13698;SDS011;6921;53.642;9.956;2023-02-15T03:07:43;98.47;;;31.57;;
13698;SDS011;6921;53.642;9.956;2023-02-15T03:09:50;154.73;;;33.77;;
13698;SDS011;6921;53.642;9.956;2023-02-15T03:11:55;100.73;;;31.87;;
13698;SDS011;6921;53.642;9.956;2023-02-15T03:13:58;87.20;;;32.40;;
13698;SDS011;6921;53.642;9.956;2023-02-15T03:16:01;91.40;;;31.43;;
13698;SDS011;6921;53.642;9.956;2023-02-15T03:18:28;91.60;;;31.37;;
13698;SDS011;6921;53.642;9.956;2023-02-15T03:20:35;95.93;;;31.93;;
13698;SDS011;6921;53.642;9.956;2023-02-15T03:22:40;98.60;;;33.50;;
13698;SDS011;6921;53.642;9.956;2023-02-15T03:24:51;106.97;;;33.20;;
13698;SDS011;6921;53.642;9.956;2023-02-15T03:26:56;113.07;;;34.00;;
13698;SDS011;6921;53.642;9.956;2023-02-15T03:29:00;118.17;;;33.47;;
13698;SDS011;6921;53.642;9.956;2023-02-15T03:31:05;105.67;;;33.23;;
13698;SDS011;6921;53.642;9.956;2023-02-15T03:33:10;112.80;;;34.83;;
13698;SDS011;6921;53.642;9.956;2023-02-15T03:35:13;134.77;;;34.13;;
13698;SDS011;6921;53.642;9.956;2023-02-15T03:37:20;128.20;;;32.00;;
13698;SDS011;6921;53.642;9.956;2023-02-15T03:39:26;104.50;;;33.67;;
13698;SDS011;6921;53.642;9.956;2023-02-15T03:41:33;110.00;;;33.23;;
13698;SDS011;6921;53.642;9.956;2023-02-15T03:43:41;100.83;;;32.53;;
13698;SDS011;6921;53.642;9.956;2023-02-15T03:45:49;107.20;;;33.57;;
13698;SDS011;6921;53.642;9.956;2023-02-15T03:47:57;112.50;;;30.87;;
13698;SDS011;6921;53.642;9.956;2023-02-15T03:50:04;101.27;;;32.97;;
13698;SDS011;6921;53.642;9.956;2023-02-15T03:52:32;102.57;;;32.93;;
13698;SDS011;6921;53.642;9.956;2023-02-15T03:54:35;98.27;;;31.97;;
13698;SDS011;6921;53.642;9.956;2023-02-15T03:56:44;101.50;;;32.77;;
13698;SDS011;6921;53.642;9.956;2023-02-15T03:59:08;105.47;;;33.43;;
13698;SDS011;6921;53.642;9.956;2023-02-15T04:01:31;108.57;;;34.17;;
13698;SDS011;6921;53.642;9.956;2023-02-15T04:04:00;90.20;;;32.13;;
13698;SDS011;6921;53.642;9.956;2023-02-15T04:06:09;150.13;;;33.90;;
13698;SDS011;6921;53.642;9.956;2023-02-15T04:08:14;108.63;;;33.00;;
13698;SDS011;6921;53.642;9.956;2023-02-15T04:10:17;96.07;;;31.27;;
13698;SDS011;6921;53.642;9.956;2023-02-15T04:12:37;116.17;;;32.53;;
13698;SDS011;6921;53.642;9.956;2023-02-15T04:14:41;111.07;;;33.00;;
13698;SDS011;6921;53.642;9.956;2023-02-15T04:17:02;103.67;;;32.40;;
13698;SDS011;6921;53.642;9.956;2023-02-15T04:19:07;105.13;;;33.73;;
13698;SDS011;6921;53.642;9.956;2023-02-15T04:21:29;111.73;;;33.27;;
13698;SDS011;6921;53.642;9.956;2023-02-15T04:23:51;112.53;;;33.03;;
13698;SDS011;6921;53.642;9.956;2023-02-15T04:26:12;90.40;;;30.37;;
13698;SDS011;6921;53.642;9.956;2023-02-15T04:28:15;94.57;;;34.07;;
13698;SDS011;6921;53.642;9.956;2023-02-15T04:30:20;98.97;;;33.27;;
13698;SDS011;6921;53.642;9.956;2023-02-15T04:32:23;131.03;;;35.17;;
13698;SDS011;6921;53.642;9.956;2023-02-15T04:34:26;116.27;;;32.90;;
13698;SDS011;6921;53.642;9.956;2023-02-15T04:36:30;96.03;;;33.73;;
13698;SDS011;6921;53.642;9.956;2023-02-15T04:38:33;144.67;;;34.53;;
13698;SDS011;6921;53.642;9.956;2023-02-15T04:40:38;99.90;;;31.57;;
13698;SDS011;6921;53.642;9.956;2023-02-15T04:42:41;98.00;;;33.13;;
13698;SDS011;6921;53.642;9.956;2023-02-15T04:44:44;101.00;;;35.40;;
13698;SDS011;6921;53.642;9.956;2023-02-15T04:46:47;102.17;;;32.93;;
13698;SDS011;6921;53.642;9.956;2023-02-15T04:48:51;98.03;;;33.70;;
13698;SDS011;6921;53.642;9.956;2023-02-15T04:50:54;93.87;;;32.00;;
13698;SDS011;6921;53.642;9.956;2023-02-15T04:52:57;98.60;;;31.97;;
13698;SDS011;6921;53.642;9.956;2023-02-15T04:55:00;132.73;;;31.87;;
13698;SDS011;6921;53.642;9.956;2023-02-15T04:57:05;108.13;;;32.20;;
13698;SDS011;6921;53.642;9.956;2023-02-15T04:59:09;86.13;;;30.47;;
13698;SDS011;6921;53.642;9.956;2023-02-15T05:01:12;95.83;;;31.40;;
13698;SDS011;6921;53.642;9.956;2023-02-15T05:03:16;88.50;;;31.03;;
13698;SDS011;6921;53.642;9.956;2023-02-15T05:05:19;76.50;;;28.83;;
13698;SDS011;6921;53.642;9.956;2023-02-15T05:07:23;78.63;;;30.70;;
13698;SDS011;6921;53.642;9.956;2023-02-15T05:09:26;105.60;;;30.77;;
13698;SDS011;6921;53.642;9.956;2023-02-15T05:11:29;81.13;;;29.87;;
13698;SDS011;6921;53.642;9.956;2023-02-15T05:13:34;87.67;;;30.13;;
13698;SDS011;6921;53.642;9.956;2023-02-15T05:15:37;80.87;;;29.87;;
13698;SDS011;6921;53.642;9.956;2023-02-15T05:17:40;87.80;;;29.77;;
13698;SDS011;6921;53.642;9.956;2023-02-15T05:19:43;99.93;;;28.20;;
13698;SDS011;6921;53.642;9.956;2023-02-15T05:21:47;95.93;;;29.27;;
13698;SDS011;6921;53.642;9.956;2023-02-15T05:23:50;140.47;;;28.77;;
13698;SDS011;6921;53.642;9.956;2023-02-15T05:25:53;98.07;;;29.10;;
13698;SDS011;6921;53.642;9.956;2023-02-15T05:28:14;80.20;;;27.97;;
13698;SDS011;6921;53.642;9.956;2023-02-15T05:30:24;102.70;;;28.47;;
13698;SDS011;6921;53.642;9.956;2023-02-15T05:32:27;76.60;;;27.53;;
13698;SDS011;6921;53.642;9.956;2023-02-15T05:34:31;72.80;;;28.73;;
13698;SDS011;6921;53.642;9.956;2023-02-15T05:36:34;89.23;;;28.20;;
13698;SDS011;6921;53.642;9.956;2023-02-15T05:38:38;81.00;;;28.73;;
13698;SDS011;6921;53.642;9.956;2023-02-15T05:40:41;88.13;;;30.27;;
13698;SDS011;6921;53.642;9.956;2023-02-15T05:42:44;96.23;;;29.67;;
13698;SDS011;6921;53.642;9.956;2023-02-15T05:44:48;86.43;;;29.63;;
13698;SDS011;6921;53.642;9.956;2023-02-15T05:46:52;80.50;;;30.20;;
13698;SDS011;6921;53.642;9.956;2023-02-15T05:48:55;95.87;;;31.37;;
13698;SDS011;6921;53.642;9.956;2023-02-15T05:50:59;76.20;;;28.50;;
13698;SDS011;6921;53.642;9.956;2023-02-15T05:53:02;99.80;;;31.57;;
13698;SDS011;6921;53.642;9.956;2023-02-15T05:55:05;71.83;;;29.20;;
13698;SDS011;6921;53.642;9.956;2023-02-15T05:57:09;74.47;;;28.17;;
13698;SDS011;6921;53.642;9.956;2023-02-15T05:59:13;80.70;;;29.80;;
13698;SDS011;6921;53.642;9.956;2023-02-15T06:01:17;86.23;;;30.97;;
13698;SDS011;6921;53.642;9.956;2023-02-15T06:03:24;113.50;;;33.00;;
13698;SDS011;6921;53.642;9.956;2023-02-15T06:05:29;89.10;;;29.03;;
13698;SDS011;6921;53.642;9.956;2023-02-15T06:07:33;73.93;;;30.03;;
13698;SDS011;6921;53.642;9.956;2023-02-15T06:09:36;92.83;;;29.23;;
13698;SDS011;6921;53.642;9.956;2023-02-15T06:11:39;142.40;;;32.73;;
13698;SDS011;6921;53.642;9.956;2023-02-15T06:13:42;91.57;;;28.40;;
13698;SDS011;6921;53.642;9.956;2023-02-15T06:15:46;68.50;;;28.87;;
13698;SDS011;6921;53.642;9.956;2023-02-15T06:17:49;85.43;;;30.63;;
13698;SDS011;6921;53.642;9.956;2023-02-15T06:19:54;81.47;;;30.63;;
13698;SDS011;6921;53.642;9.956;2023-02-15T06:21:57;70.10;;;28.07;;
13698;SDS011;6921;53.642;9.956;2023-02-15T06:24:00;72.43;;;30.33;;
13698;SDS011;6921;53.642;9.956;2023-02-15T06:26:03;67.53;;;28.37;;
13698;SDS011;6921;53.642;9.956;2023-02-15T06:28:07;74.87;;;29.83;;
13698;SDS011;6921;53.642;9.956;2023-02-15T06:30:10;92.87;;;29.70;;
13698;SDS011;6921;53.642;9.956;2023-02-15T06:32:14;68.77;;;28.13;;
13698;SDS011;6921;53.642;9.956;2023-02-15T06:34:17;71.50;;;29.20;;
13698;SDS011;6921;53.642;9.956;2023-02-15T06:36:22;65.60;;;27.73;;
13698;SDS011;6921;53.642;9.956;2023-02-15T06:38:25;66.00;;;28.27;;
13698;SDS011;6921;53.642;9.956;2023-02-15T06:40:28;83.33;;;29.93;;
13698;SDS011;6921;53.642;9.956;2023-02-15T06:42:31;71.50;;;29.13;;
13698;SDS011;6921;53.642;9.956;2023-02-15T06:44:34;82.10;;;28.17;;
13698;SDS011;6921;53.642;9.956;2023-02-15T06:46:38;64.40;;;27.30;;
13698;SDS011;6921;53.642;9.956;2023-02-15T06:48:41;71.47;;;29.07;;
13698;SDS011;6921;53.642;9.956;2023-02-15T06:50:44;72.10;;;27.33;;
13698;SDS011;6921;53.642;9.956;2023-02-15T06:52:49;97.97;;;31.17;;
13698;SDS011;6921;53.642;9.956;2023-02-15T06:54:52;70.30;;;27.70;;
13698;SDS011;6921;53.642;9.956;2023-02-15T06:56:55;69.80;;;28.47;;
13698;SDS011;6921;53.642;9.956;2023-02-15T06:58:59;112.33;;;31.43;;
13698;SDS011;6921;53.642;9.956;2023-02-15T07:01:02;68.07;;;28.03;;
13698;SDS011;6921;53.642;9.956;2023-02-15T07:03:05;86.40;;;29.87;;
13698;SDS011;6921;53.642;9.956;2023-02-15T07:05:09;78.27;;;28.73;;
13698;SDS011;6921;53.642;9.956;2023-02-15T07:07:12;118.40;;;30.03;;
13698;SDS011;6921;53.642;9.956;2023-02-15T07:09:17;93.23;;;31.00;;
13698;SDS011;6921;53.642;9.956;2023-02-15T07:11:20;115.47;;;31.33;;
13698;SDS011;6921;53.642;9.956;2023-02-15T07:13:41;102.23;;;29.77;;
13698;SDS011;6921;53.642;9.956;2023-02-15T07:15:45;115.90;;;31.30;;
13698;SDS011;6921;53.642;9.956;2023-02-15T07:17:49;148.27;;;31.03;;
13698;SDS011;6921;53.642;9.956;2023-02-15T07:19:52;77.53;;;29.07;;
13698;SDS011;6921;53.642;9.956;2023-02-15T07:21:55;67.90;;;28.17;;
13698;SDS011;6921;53.642;9.956;2023-02-15T07:23:58;135.03;;;30.23;;
13698;SDS011;6921;53.642;9.956;2023-02-15T07:26:03;98.87;;;28.70;;
13698;SDS011;6921;53.642;9.956;2023-02-15T07:28:07;89.03;;;28.70;;
13698;SDS011;6921;53.642;9.956;2023-02-15T07:30:11;79.47;;;29.83;;
13698;SDS011;6921;53.642;9.956;2023-02-15T07:32:15;105.03;;;32.07;;
13698;SDS011;6921;53.642;9.956;2023-02-15T07:34:19;85.43;;;34.43;;
13698;SDS011;6921;53.642;9.956;2023-02-15T07:36:22;96.97;;;32.83;;
13698;SDS011;6921;53.642;9.956;2023-02-15T07:38:26;82.07;;;31.70;;
13698;SDS011;6921;53.642;9.956;2023-02-15T07:40:29;92.30;;;33.03;;
13698;SDS011;6921;53.642;9.956;2023-02-15T07:42:34;137.00;;;34.80;;
13698;SDS011;6921;53.642;9.956;2023-02-15T07:44:37;134.97;;;34.13;;
13698;SDS011;6921;53.642;9.956;2023-02-15T07:46:40;95.20;;;31.27;;
13698;SDS011;6921;53.642;9.956;2023-02-15T07:48:43;147.00;;;31.87;;
13698;SDS011;6921;53.642;9.956;2023-02-15T07:50:47;120.77;;;31.77;;
13698;SDS011;6921;53.642;9.956;2023-02-15T07:52:50;104.10;;;36.13;;
13698;SDS011;6921;53.642;9.956;2023-02-15T07:54:53;120.47;;;39.33;;
13698;SDS011;6921;53.642;9.956;2023-02-15T07:56:56;117.23;;;35.20;;
13698;SDS011;6921;53.642;9.956;2023-02-15T07:59:01;177.17;;;38.70;;
13698;SDS011;6921;53.642;9.956;2023-02-15T08:01:06;154.53;;;35.90;;
13698;SDS011;6921;53.642;9.956;2023-02-15T08:03:09;117.90;;;34.43;;
13698;SDS011;6921;53.642;9.956;2023-02-15T08:05:16;89.20;;;30.87;;
13698;SDS011;6921;53.642;9.956;2023-02-15T08:07:19;91.63;;;33.07;;
13698;SDS011;6921;53.642;9.956;2023-02-15T08:09:22;110.37;;;38.77;;
13698;SDS011;6921;53.642;9.956;2023-02-15T08:11:26;111.97;;;35.37;;
13698;SDS011;6921;53.642;9.956;2023-02-15T08:13:33;84.87;;;32.37;;
13698;SDS011;6921;53.642;9.956;2023-02-15T08:15:55;116.77;;;33.33;;
13698;SDS011;6921;53.642;9.956;2023-02-15T08:17:58;83.40;;;32.20;;
13698;SDS011;6921;53.642;9.956;2023-02-15T08:20:02;99.37;;;34.47;;
13698;SDS011;6921;53.642;9.956;2023-02-15T08:22:06;83.63;;;33.17;;
13698;SDS011;6921;53.642;9.956;2023-02-15T08:24:12;100.63;;;35.30;;
13698;SDS011;6921;53.642;9.956;2023-02-15T08:26:15;96.07;;;34.90;;
13698;SDS011;6921;53.642;9.956;2023-02-15T08:28:19;103.67;;;36.13;;
13698;SDS011;6921;53.642;9.956;2023-02-15T08:30:22;107.10;;;35.50;;
13698;SDS011;6921;53.642;9.956;2023-02-15T08:32:27;85.73;;;34.07;;
13698;SDS011;6921;53.642;9.956;2023-02-15T08:34:32;103.27;;;33.63;;
13698;SDS011;6921;53.642;9.956;2023-02-15T08:36:35;106.17;;;35.80;;
13698;SDS011;6921;53.642;9.956;2023-02-15T08:38:39;120.07;;;35.20;;
13698;SDS011;6921;53.642;9.956;2023-02-15T08:40:43;114.77;;;36.07;;
13698;SDS011;6921;53.642;9.956;2023-02-15T08:42:46;75.43;;;33.60;;
13698;SDS011;6921;53.642;9.956;2023-02-15T08:44:49;91.93;;;33.70;;
13698;SDS011;6921;53.642;9.956;2023-02-15T08:46:52;88.27;;;32.33;;
13698;SDS011;6921;53.642;9.956;2023-02-15T08:49:00;114.63;;;33.93;;
13698;SDS011;6921;53.642;9.956;2023-02-15T08:51:07;94.37;;;33.20;;
13698;SDS011;6921;53.642;9.956;2023-02-15T08:53:11;93.20;;;35.00;;
13698;SDS011;6921;53.642;9.956;2023-02-15T08:55:17;132.10;;;35.20;;
13698;SDS011;6921;53.642;9.956;2023-02-15T08:57:20;98.63;;;35.13;;
13698;SDS011;6921;53.642;9.956;2023-02-15T08:59:23;125.83;;;36.33;;
13698;SDS011;6921;53.642;9.956;2023-02-15T09:01:28;107.47;;;38.30;;
13698;SDS011;6921;53.642;9.956;2023-02-15T09:03:32;90.83;;;37.00;;
13698;SDS011;6921;53.642;9.956;2023-02-15T09:05:37;89.37;;;35.40;;
13698;SDS011;6921;53.642;9.956;2023-02-15T09:07:40;84.53;;;34.93;;
13698;SDS011;6921;53.642;9.956;2023-02-15T09:09:44;109.07;;;36.80;;
13698;SDS011;6921;53.642;9.956;2023-02-15T09:11:48;102.17;;;34.10;;
13698;SDS011;6921;53.642;9.956;2023-02-15T09:13:59;84.37;;;34.63;;
13698;SDS011;6921;53.642;9.956;2023-02-15T09:16:04;78.83;;;33.43;;
13698;SDS011;6921;53.642;9.956;2023-02-15T09:18:09;98.37;;;34.87;;
13698;SDS011;6921;53.642;9.956;2023-02-15T09:20:13;95.20;;;34.03;;
13698;SDS011;6921;53.642;9.956;2023-02-15T09:22:18;78.93;;;34.63;;
13698;SDS011;6921;53.642;9.956;2023-02-15T09:24:21;103.97;;;35.87;;
13698;SDS011;6921;53.642;9.956;2023-02-15T09:26:25;98.93;;;35.53;;
13698;SDS011;6921;53.642;9.956;2023-02-15T09:28:29;103.47;;;32.53;;
13698;SDS011;6921;53.642;9.956;2023-02-15T09:30:33;77.63;;;33.57;;
13698;SDS011;6921;53.642;9.956;2023-02-15T09:32:37;96.67;;;35.00;;
13698;SDS011;6921;53.642;9.956;2023-02-15T09:34:40;101.97;;;34.23;;
13698;SDS011;6921;53.642;9.956;2023-02-15T09:36:43;81.80;;;35.00;;
13698;SDS011;6921;53.642;9.956;2023-02-15T09:38:52;88.67;;;35.33;;
13698;SDS011;6921;53.642;9.956;2023-02-15T09:41:03;86.97;;;35.30;;
13698;SDS011;6921;53.642;9.956;2023-02-15T09:43:22;81.40;;;35.63;;
13698;SDS011;6921;53.642;9.956;2023-02-15T09:45:37;82.03;;;34.33;;
13698;SDS011;6921;53.642;9.956;2023-02-15T09:50:32;92.77;;;38.00;;
13698;SDS011;6921;53.642;9.956;2023-02-15T09:52:55;88.60;;;36.13;;
13698;SDS011;6921;53.642;9.956;2023-02-15T09:55:07;87.37;;;37.77;;
13698;SDS011;6921;53.642;9.956;2023-02-15T09:57:14;86.27;;;37.77;;
13698;SDS011;6921;53.642;9.956;2023-02-15T09:59:19;86.13;;;38.73;;
13698;SDS011;6921;53.642;9.956;2023-02-15T10:01:27;89.10;;;36.57;;
13698;SDS011;6921;53.642;9.956;2023-02-15T10:03:38;83.70;;;37.60;;
13698;SDS011;6921;53.642;9.956;2023-02-15T10:05:47;80.87;;;34.50;;
13698;SDS011;6921;53.642;9.956;2023-02-15T10:08:02;80.37;;;33.33;;
13698;SDS011;6921;53.642;9.956;2023-02-15T10:10:16;82.67;;;34.10;;
13698;SDS011;6921;53.642;9.956;2023-02-15T10:12:27;72.60;;;33.63;;
13698;SDS011;6921;53.642;9.956;2023-02-15T10:14:47;75.23;;;32.07;;
13698;SDS011;6921;53.642;9.956;2023-02-15T10:17:06;82.70;;;35.53;;
13698;SDS011;6921;53.642;9.956;2023-02-15T10:19:13;77.53;;;35.67;;
13698;SDS011;6921;53.642;9.956;2023-02-15T10:21:23;79.13;;;35.73;;
13698;SDS011;6921;53.642;9.956;2023-02-15T10:23:34;86.17;;;36.87;;
13698;SDS011;6921;53.642;9.956;2023-02-15T10:25:43;76.73;;;37.00;;
13698;SDS011;6921;53.642;9.956;2023-02-15T10:27:49;77.57;;;35.27;;
13698;SDS011;6921;53.642;9.956;2023-02-15T10:29:56;68.10;;;32.03;;
13698;SDS011;6921;53.642;9.956;2023-02-15T10:32:05;67.73;;;32.83;;
13698;SDS011;6921;53.642;9.956;2023-02-15T10:34:17;71.47;;;35.73;;
13698;SDS011;6921;53.642;9.956;2023-02-15T10:36:24;69.33;;;33.80;;
13698;SDS011;6921;53.642;9.956;2023-02-15T10:38:33;75.43;;;35.73;;
13698;SDS011;6921;53.642;9.956;2023-02-15T10:40:40;70.20;;;35.10;;
13698;SDS011;6921;53.642;9.956;2023-02-15T10:42:52;69.63;;;34.73;;
13698;SDS011;6921;53.642;9.956;2023-02-15T10:45:06;64.13;;;33.53;;
13698;SDS011;6921;53.642;9.956;2023-02-15T10:47:30;64.33;;;35.50;;
13698;SDS011;6921;53.642;9.956;2023-02-15T10:52:23;57.73;;;29.33;;
13698;SDS011;6921;53.642;9.956;2023-02-15T10:54:32;64.80;;;33.37;;
13698;SDS011;6921;53.642;9.956;2023-02-15T10:56:38;67.43;;;35.70;;
13698;SDS011;6921;53.642;9.956;2023-02-15T10:58:49;66.13;;;35.00;;
13698;SDS011;6921;53.642;9.956;2023-02-15T11:01:10;58.37;;;33.23;;
13698;SDS011;6921;53.642;9.956;2023-02-15T11:03:19;54.63;;;30.43;;
13698;SDS011;6921;53.642;9.956;2023-02-15T11:05:26;56.43;;;31.83;;
13698;SDS011;6921;53.642;9.956;2023-02-15T11:07:33;59.73;;;32.97;;
13698;SDS011;6921;53.642;9.956;2023-02-15T11:09:42;56.50;;;33.07;;
13698;SDS011;6921;53.642;9.956;2023-02-15T11:11:47;52.23;;;30.50;;
13698;SDS011;6921;53.642;9.956;2023-02-15T11:13:52;56.87;;;30.27;;
13698;SDS011;6921;53.642;9.956;2023-02-15T11:15:59;52.83;;;30.83;;
13698;SDS011;6921;53.642;9.956;2023-02-15T11:18:06;53.53;;;31.30;;
13698;SDS011;6921;53.642;9.956;2023-02-15T11:20:16;52.97;;;31.57;;
13698;SDS011;6921;53.642;9.956;2023-02-15T11:22:21;55.73;;;31.30;;
13698;SDS011;6921;53.642;9.956;2023-02-15T11:24:25;53.80;;;31.10;;
13698;SDS011;6921;53.642;9.956;2023-02-15T11:26:31;57.07;;;32.80;;
13698;SDS011;6921;53.642;9.956;2023-02-15T11:28:38;60.17;;;32.87;;
13698;SDS011;6921;53.642;9.956;2023-02-15T11:30:45;57.40;;;30.83;;
13698;SDS011;6921;53.642;9.956;2023-02-15T11:32:53;54.73;;;31.90;;
13698;SDS011;6921;53.642;9.956;2023-02-15T11:35:03;56.63;;;32.47;;
13698;SDS011;6921;53.642;9.956;2023-02-15T11:37:10;59.27;;;32.03;;
13698;SDS011;6921;53.642;9.956;2023-02-15T11:39:18;72.97;;;31.13;;
13698;SDS011;6921;53.642;9.956;2023-02-15T11:41:24;56.97;;;33.30;;
13698;SDS011;6921;53.642;9.956;2023-02-15T11:43:33;59.30;;;32.50;;
13698;SDS011;6921;53.642;9.956;2023-02-15T11:45:39;53.23;;;32.17;;
13698;SDS011;6921;53.642;9.956;2023-02-15T11:47:46;52.23;;;30.40;;
13698;SDS011;6921;53.642;9.956;2023-02-15T11:49:49;45.63;;;29.50;;
13698;SDS011;6921;53.642;9.956;2023-02-15T11:51:52;51.03;;;28.97;;
13698;SDS011;6921;53.642;9.956;2023-02-15T11:53:57;49.93;;;29.27;;
13698;SDS011;6921;53.642;9.956;2023-02-15T11:56:00;57.20;;;28.47;;
13698;SDS011;6921;53.642;9.956;2023-02-15T11:58:09;52.43;;;29.97;;
13698;SDS011;6921;53.642;9.956;2023-02-15T12:00:26;42.43;;;27.27;;
13698;SDS011;6921;53.642;9.956;2023-02-15T12:02:37;43.37;;;28.47;;
13698;SDS011;6921;53.642;9.956;2023-02-15T12:04:44;49.90;;;30.70;;
13698;SDS011;6921;53.642;9.956;2023-02-15T12:06:53;44.85;;;29.70;;
13698;SDS011;6921;53.642;9.956;2023-02-15T12:09:03;44.60;;;29.10;;
13698;SDS011;6921;53.642;9.956;2023-02-15T12:11:10;38.72;;;28.10;;
13698;SDS011;6921;53.642;9.956;2023-02-15T12:13:18;47.92;;;29.70;;
13698;SDS011;6921;53.642;9.956;2023-02-15T12:15:29;40.95;;;28.52;;
13698;SDS011;6921;53.642;9.956;2023-02-15T12:17:34;41.67;;;28.58;;
13698;SDS011;6921;53.642;9.956;2023-02-15T12:19:51;44.33;;;29.27;;
13698;SDS011;6921;53.642;9.956;2023-02-15T12:21:57;44.40;;;28.38;;
13698;SDS011;6921;53.642;9.956;2023-02-15T12:24:03;42.25;;;29.02;;
13698;SDS011;6921;53.642;9.956;2023-02-15T12:26:22;42.33;;;28.38;;
13698;SDS011;6921;53.642;9.956;2023-02-15T12:28:35;40.08;;;28.52;;
13698;SDS011;6921;53.642;9.956;2023-02-15T12:30:41;39.95;;;27.55;;
13698;SDS011;6921;53.642;9.956;2023-02-15T12:32:47;40.03;;;28.88;;
13698;SDS011;6921;53.642;9.956;2023-02-15T12:34:54;43.53;;;28.95;;